createdAt,value
2019-05-19T00:01:44.982Z,12.70
2019-05-19T00:04:12.833Z,12.70
2019-05-19T00:06:40.850Z,12.50
2019-05-19T00:09:08.956Z,12.50
2019-05-19T00:11:36.851Z,12.60
2019-05-19T00:14:04.791Z,12.70
2019-05-19T00:16:32.795Z,12.60
2019-05-19T00:19:02.068Z,12.50
2019-05-19T00:21:30.380Z,12.50
2019-05-19T00:23:59.912Z,12.60
2019-05-19T00:26:28.164Z,12.50
2019-05-19T00:28:56.385Z,12.40
2019-05-19T00:31:24.257Z,12.60
2019-05-19T00:33:52.222Z,12.50
2019-05-19T00:36:20.115Z,12.60
2019-05-19T00:38:48.029Z,12.60
2019-05-19T00:41:15.935Z,12.60
2019-05-19T00:43:44.170Z,12.50
2019-05-19T00:46:12.049Z,12.40
2019-05-19T00:48:39.920Z,12.40
2019-05-19T00:51:08.496Z,12.20
2019-05-19T00:53:36.627Z,12.20
2019-05-19T00:56:04.552Z,12.20
2019-05-19T00:58:34.039Z,12.00
2019-05-19T01:01:02.043Z,11.90
2019-05-19T01:03:29.931Z,12.10
2019-05-19T01:05:57.885Z,12.20
2019-05-19T01:08:25.967Z,12.20
2019-05-19T01:10:53.821Z,12.20
2019-05-19T01:13:22.144Z,12.40
2019-05-19T01:15:50.007Z,12.50
2019-05-19T01:18:36.067Z,12.50
2019-05-19T01:21:03.889Z,12.30
2019-05-19T01:23:32.240Z,12.30
2019-05-19T01:26:00.103Z,12.30
2019-05-19T01:28:28.418Z,12.40
2019-05-19T01:30:56.316Z,12.50
2019-05-19T01:33:24.292Z,12.50
2019-05-19T01:35:52.146Z,12.40
2019-05-19T01:38:20.206Z,12.40
2019-05-19T01:40:48.096Z,12.40
2019-05-19T01:43:16.041Z,12.30
2019-05-19T01:45:44.380Z,12.30
2019-05-19T01:48:12.293Z,12.30
2019-05-19T01:50:40.348Z,12.40
2019-05-19T01:53:08.316Z,12.40
2019-05-19T01:55:36.390Z,12.50
2019-05-19T01:58:04.793Z,12.30
2019-05-19T02:00:32.775Z,12.50
2019-05-19T02:03:00.769Z,12.60
2019-05-19T02:05:28.755Z,12.50
2019-05-19T02:07:56.591Z,12.60
2019-05-19T02:10:24.438Z,12.70
2019-05-19T02:12:52.469Z,12.60
2019-05-19T02:15:20.363Z,12.70
2019-05-19T02:17:48.499Z,12.70
2019-05-19T02:20:31.669Z,12.70
2019-05-19T02:22:47.542Z,12.60
2019-05-19T02:25:16.128Z,12.50
2019-05-19T02:27:44.409Z,12.70
2019-05-19T02:30:12.754Z,12.80
2019-05-19T02:32:40.744Z,12.70
2019-05-19T02:35:08.743Z,12.60
2019-05-19T02:37:36.609Z,12.50
2019-05-19T02:40:05.907Z,12.60
2019-05-19T02:42:37.567Z,12.60
2019-05-19T02:45:06.007Z,12.80
2019-05-19T02:47:34.850Z,12.80
2019-05-19T02:50:04.046Z,12.70
2019-05-19T02:52:32.704Z,12.70
2019-05-19T02:55:01.444Z,12.80
2019-05-19T02:57:30.709Z,12.90
2019-05-19T02:59:59.163Z,12.90
2019-05-19T03:02:27.155Z,12.80
2019-05-19T03:04:55.135Z,12.70
2019-05-19T03:07:23.030Z,12.70
2019-05-19T03:09:50.961Z,12.80
2019-05-19T03:12:19.465Z,12.80
2019-05-19T03:14:47.365Z,12.60
2019-05-19T03:17:15.253Z,12.60
2019-05-19T03:19:43.142Z,12.60
2019-05-19T03:22:11.192Z,12.70
2019-05-19T03:24:39.186Z,12.80
2019-05-19T03:27:07.194Z,12.70
2019-05-19T03:29:39.809Z,12.80
2019-05-19T03:32:18.787Z,12.90
2019-05-19T03:34:46.947Z,13.00
2019-05-19T03:37:14.879Z,13.10
2019-05-19T03:39:43.090Z,13.10
2019-05-19T03:42:11.127Z,13.00
2019-05-19T03:44:39.086Z,13.10
2019-05-19T03:47:07.300Z,13.10
2019-05-19T03:49:35.755Z,13.00
2019-05-19T03:52:03.795Z,13.00
2019-05-19T03:54:31.694Z,12.90
2019-05-19T03:56:59.584Z,12.90
2019-05-19T03:59:27.990Z,12.90
2019-05-19T04:01:56.510Z,12.90
2019-05-19T04:04:24.599Z,13.00
2019-05-19T04:06:53.010Z,13.10
2019-05-19T04:09:20.911Z,13.20
2019-05-19T04:11:48.911Z,13.10
2019-05-19T04:14:16.797Z,13.00
2019-05-19T04:16:44.697Z,12.90
2019-05-19T04:19:12.772Z,12.90
2019-05-19T04:21:48.995Z,13.10
2019-05-19T04:24:11.221Z,13.10
2019-05-19T04:26:39.234Z,13.00
2019-05-19T04:29:07.133Z,13.00
2019-05-19T04:31:35.002Z,13.10
2019-05-19T04:34:02.907Z,13.10
2019-05-19T04:36:31.037Z,13.20
2019-05-19T04:38:59.156Z,13.30
2019-05-19T04:41:27.107Z,13.50
2019-05-19T04:43:55.016Z,13.50
2019-05-19T04:46:22.951Z,13.40
2019-05-19T04:48:50.898Z,13.50
2019-05-19T04:51:18.905Z,13.50
2019-05-19T04:53:46.800Z,13.50
2019-05-19T04:56:15.285Z,13.60
2019-05-19T04:58:43.530Z,13.50
2019-05-19T05:01:11.457Z,13.60
2019-05-19T05:03:39.808Z,13.60
2019-05-19T05:06:07.722Z,13.70
2019-05-19T05:08:35.738Z,13.70
2019-05-19T05:11:03.721Z,14.00
2019-05-19T05:13:31.675Z,14.10
2019-05-19T05:15:59.560Z,14.20
2019-05-19T05:18:27.526Z,14.10
2019-05-19T05:20:55.832Z,14.00
2019-05-19T05:23:23.753Z,14.00
2019-05-19T05:25:51.797Z,14.10
2019-05-19T05:28:19.870Z,14.40
2019-05-19T05:30:48.149Z,14.80
2019-05-19T05:33:16.029Z,15.10
2019-05-19T05:35:44.009Z,15.30
2019-05-19T05:38:11.931Z,15.50
2019-05-19T05:40:39.761Z,15.50
2019-05-19T05:43:07.715Z,15.50
2019-05-19T05:45:36.527Z,15.40
2019-05-19T05:48:04.446Z,15.40
2019-05-19T05:50:32.424Z,15.40
2019-05-19T05:53:00.765Z,15.40
2019-05-19T05:55:28.719Z,15.40
2019-05-19T05:57:56.792Z,15.30
2019-05-19T06:00:24.750Z,15.30
2019-05-19T06:02:52.826Z,15.30
2019-05-19T06:05:20.941Z,15.30
2019-05-19T06:07:48.932Z,15.20
2019-05-19T06:10:17.938Z,15.30
2019-05-19T06:12:46.028Z,15.20
2019-05-19T06:15:13.980Z,15.10
2019-05-19T06:17:41.962Z,15.00
2019-05-19T06:20:10.130Z,15.00
2019-05-19T06:22:54.730Z,15.00
2019-05-19T06:25:08.222Z,15.00
2019-05-19T06:27:36.524Z,15.00
2019-05-19T06:30:08.502Z,15.00
2019-05-19T06:32:45.475Z,14.90
2019-05-19T06:35:14.082Z,15.00
2019-05-19T06:37:41.936Z,15.10
2019-05-19T06:40:09.932Z,15.20
2019-05-19T06:42:37.918Z,15.30
2019-05-19T06:45:07.011Z,15.40
2019-05-19T06:47:35.078Z,15.40
2019-05-19T06:50:03.966Z,15.50
2019-05-19T06:52:31.948Z,15.50
2019-05-19T06:55:00.472Z,15.30
2019-05-19T06:57:28.594Z,15.30
2019-05-19T06:59:56.583Z,15.40
2019-05-19T07:02:24.505Z,15.50
2019-05-19T07:04:52.348Z,15.40
2019-05-19T07:07:20.220Z,15.40
2019-05-19T07:09:57.985Z,15.40
2019-05-19T07:12:18.325Z,15.30
2019-05-19T07:14:47.035Z,15.50
2019-05-19T07:17:15.099Z,15.40
2019-05-19T07:19:43.119Z,15.30
2019-05-19T07:22:11.205Z,15.20
2019-05-19T07:24:39.200Z,15.30
2019-05-19T07:27:07.318Z,15.50
2019-05-19T07:29:35.830Z,15.60
2019-05-19T07:32:03.718Z,15.80
2019-05-19T07:34:31.912Z,16.00
2019-05-19T07:37:00.240Z,16.30
2019-05-19T07:39:28.663Z,16.40
2019-05-19T07:41:56.648Z,16.50
2019-05-19T07:44:24.558Z,16.80
2019-05-19T07:46:52.938Z,17.90
2019-05-19T07:49:21.372Z,18.60
2019-05-19T07:51:49.430Z,18.40
2019-05-19T07:54:17.718Z,18.50
2019-05-19T07:56:45.750Z,18.50
2019-05-19T07:59:13.773Z,19.10
2019-05-19T08:01:41.758Z,19.00
2019-05-19T08:04:09.602Z,18.70
2019-05-19T08:06:37.559Z,17.80
2019-05-19T08:09:06.037Z,17.50
2019-05-19T08:11:34.158Z,17.30
2019-05-19T08:14:02.137Z,17.00
2019-05-19T08:16:30.156Z,17.00
2019-05-19T08:18:58.359Z,17.20
2019-05-19T08:21:26.526Z,17.20
2019-05-19T08:24:00.426Z,17.10
2019-05-19T08:26:25.072Z,17.60
2019-05-19T08:28:53.139Z,18.10
2019-05-19T08:31:21.147Z,17.50
2019-05-19T08:33:55.334Z,17.40
2019-05-19T08:36:23.280Z,18.00
2019-05-19T08:38:51.131Z,17.70
2019-05-19T08:41:19.061Z,18.10
2019-05-19T08:43:46.953Z,18.10
2019-05-19T08:46:14.885Z,18.50
2019-05-19T08:48:42.851Z,18.40
2019-05-19T08:51:11.180Z,18.80
2019-05-19T08:53:39.577Z,18.80
2019-05-19T08:56:07.777Z,19.60
2019-05-19T08:58:36.009Z,19.10
2019-05-19T09:01:04.108Z,18.00
2019-05-19T09:03:31.957Z,18.40
2019-05-19T09:06:00.206Z,19.00
2019-05-19T09:08:28.192Z,18.40
2019-05-19T09:10:56.756Z,18.70
2019-05-19T09:13:24.850Z,19.10
2019-05-19T09:15:52.845Z,19.70
2019-05-19T09:18:20.828Z,20.30
2019-05-19T09:20:49.113Z,20.50
2019-05-19T09:23:17.139Z,20.70
2019-05-19T09:25:45.028Z,20.80
2019-05-19T09:28:12.969Z,21.00
2019-05-19T09:30:41.125Z,21.20
2019-05-19T09:33:09.257Z,19.20
2019-05-19T09:35:37.588Z,18.50
2019-05-19T09:38:05.639Z,18.60
2019-05-19T09:40:33.849Z,19.10
2019-05-19T09:43:02.323Z,20.00
2019-05-19T09:45:30.289Z,20.60
2019-05-19T09:47:59.043Z,21.10
2019-05-19T09:50:27.412Z,21.30
2019-05-19T09:52:55.515Z,20.70
2019-05-19T09:55:23.612Z,20.20
2019-05-19T09:57:51.818Z,19.90
2019-05-19T10:00:20.190Z,20.00
2019-05-19T10:02:48.288Z,19.50
2019-05-19T10:05:16.475Z,19.60
2019-05-19T10:07:44.491Z,20.00
2019-05-19T10:10:16.996Z,20.80
2019-05-19T10:12:44.940Z,21.60
2019-05-19T10:15:14.117Z,20.50
2019-05-19T10:17:42.308Z,20.50
2019-05-19T10:20:11.700Z,20.60
2019-05-19T10:22:40.030Z,21.00
2019-05-19T10:25:21.541Z,21.10
2019-05-19T10:27:40.455Z,21.00
2019-05-19T10:30:09.317Z,20.20
2019-05-19T10:32:37.354Z,20.40
2019-05-19T10:35:05.920Z,20.10
2019-05-19T10:37:33.956Z,19.90
2019-05-19T10:40:02.413Z,19.70
2019-05-19T10:42:30.372Z,20.00
2019-05-19T10:44:58.430Z,20.70
2019-05-19T10:47:26.388Z,21.40
2019-05-19T10:49:54.344Z,22.10
2019-05-19T10:52:22.399Z,22.40
2019-05-19T10:54:50.556Z,22.70
2019-05-19T10:57:18.498Z,22.90
2019-05-19T10:59:46.483Z,22.80
2019-05-19T11:02:14.404Z,22.50
2019-05-19T11:04:42.351Z,21.60
2019-05-19T11:07:10.372Z,21.40
2019-05-19T11:09:38.419Z,21.40
2019-05-19T11:12:06.521Z,22.30
2019-05-19T11:14:34.526Z,21.20
2019-05-19T11:17:02.621Z,21.20
2019-05-19T11:19:30.526Z,22.00
2019-05-19T11:21:59.050Z,22.10
2019-05-19T11:24:27.241Z,21.90
2019-05-19T11:26:55.187Z,22.30
2019-05-19T11:29:23.144Z,21.80
2019-05-19T11:31:51.503Z,21.80
2019-05-19T11:34:19.542Z,22.20
2019-05-19T11:36:47.459Z,22.40
2019-05-19T11:39:15.499Z,22.40
2019-05-19T11:41:43.778Z,22.40
2019-05-19T11:44:12.149Z,22.30
2019-05-19T11:46:40.584Z,22.00
2019-05-19T11:49:08.701Z,21.90
2019-05-19T11:51:36.615Z,21.90
2019-05-19T11:54:04.964Z,21.90
2019-05-19T11:56:33.176Z,21.80
2019-05-19T11:59:01.104Z,21.80
2019-05-19T12:01:29.272Z,21.90
2019-05-19T12:03:57.182Z,21.90
2019-05-19T12:06:38.030Z,22.00
2019-05-19T12:08:55.248Z,22.60
2019-05-19T12:11:23.350Z,23.30
2019-05-19T12:13:51.308Z,23.60
2019-05-19T12:16:19.557Z,23.40
2019-05-19T12:18:47.546Z,23.60
2019-05-19T12:21:17.020Z,23.40
2019-05-19T12:23:44.959Z,24.00
2019-05-19T12:26:22.634Z,24.30
2019-05-19T12:28:42.701Z,24.20
2019-05-19T12:31:11.174Z,22.90
2019-05-19T12:33:51.135Z,22.40
2019-05-19T12:36:09.542Z,21.90
2019-05-19T12:38:37.618Z,22.40
2019-05-19T12:41:05.853Z,23.00
2019-05-19T12:43:33.845Z,23.90
2019-05-19T12:46:01.865Z,24.20
2019-05-19T12:48:29.704Z,24.40
2019-05-19T12:50:57.731Z,23.30
2019-05-19T12:53:25.696Z,22.80
2019-05-19T12:55:53.932Z,23.50
2019-05-19T12:58:21.908Z,23.60
2019-05-19T13:00:49.995Z,23.80
2019-05-19T13:03:17.978Z,23.60
2019-05-19T13:05:46.079Z,23.60
2019-05-19T13:08:14.301Z,23.90
2019-05-19T13:10:42.531Z,24.30
2019-05-19T13:13:10.995Z,24.70
2019-05-19T13:15:38.975Z,24.70
2019-05-19T13:18:07.072Z,24.90
2019-05-19T13:20:35.151Z,25.20
2019-05-19T13:23:03.203Z,25.40
2019-05-19T13:25:31.383Z,25.00
2019-05-19T13:27:59.764Z,24.80
2019-05-19T13:30:27.981Z,24.50
2019-05-19T13:32:57.089Z,24.00
2019-05-19T13:35:25.083Z,24.50
2019-05-19T13:37:53.028Z,24.70
2019-05-19T13:40:21.216Z,24.90
2019-05-19T13:42:49.752Z,24.40
2019-05-19T13:45:17.737Z,24.30
2019-05-19T13:47:46.128Z,24.50
2019-05-19T13:50:14.499Z,24.80
2019-05-19T13:52:42.596Z,24.50
2019-05-19T13:55:10.976Z,24.30
2019-05-19T13:57:38.882Z,24.20
2019-05-19T14:00:08.535Z,24.50
2019-05-19T14:02:36.500Z,24.70
2019-05-19T14:05:04.775Z,24.90
2019-05-19T14:07:32.869Z,25.10
2019-05-19T14:10:00.858Z,23.50
2019-05-19T14:12:29.663Z,24.10
2019-05-19T14:14:58.051Z,24.40
2019-05-19T14:17:26.956Z,24.40
2019-05-19T14:19:54.906Z,24.90
2019-05-19T14:22:22.992Z,25.10
2019-05-19T14:24:52.569Z,25.10
2019-05-19T14:27:29.212Z,24.90
2019-05-19T14:29:50.481Z,24.90
2019-05-19T14:32:18.488Z,25.10
2019-05-19T14:34:46.722Z,23.80
2019-05-19T14:37:15.215Z,23.80
2019-05-19T14:39:43.714Z,24.00
2019-05-19T14:42:15.797Z,24.50
2019-05-19T14:44:43.766Z,24.80
2019-05-19T14:47:11.708Z,24.80
2019-05-19T14:49:39.760Z,24.80
2019-05-19T14:52:07.672Z,25.00
2019-05-19T14:54:35.989Z,25.30
2019-05-19T14:57:04.076Z,25.70
2019-05-19T14:59:32.115Z,25.80
2019-05-19T15:02:00.188Z,25.80
2019-05-19T15:04:28.257Z,26.00
2019-05-19T15:06:56.245Z,25.90
2019-05-19T15:09:24.537Z,25.70
2019-05-19T15:11:53.107Z,25.00
2019-05-19T15:14:21.240Z,24.90
2019-05-19T15:16:49.217Z,25.00
2019-05-19T15:19:17.193Z,24.70
2019-05-19T15:21:45.302Z,24.90
2019-05-19T15:24:13.418Z,24.70
2019-05-19T15:26:41.734Z,24.60
2019-05-19T15:29:09.820Z,24.80
2019-05-19T15:31:37.715Z,25.20
2019-05-19T15:34:06.181Z,25.40
2019-05-19T15:36:34.291Z,24.70
2019-05-19T15:39:02.460Z,24.20
2019-05-19T15:41:30.493Z,24.30
2019-05-19T15:43:58.672Z,24.70
2019-05-19T15:46:26.880Z,25.30
2019-05-19T15:48:55.091Z,25.40
2019-05-19T15:51:29.089Z,25.70
2019-05-19T15:53:53.421Z,25.80
2019-05-19T15:56:21.758Z,25.40
2019-05-19T15:58:51.694Z,25.30
2019-05-19T16:01:19.665Z,25.10
2019-05-19T16:03:47.971Z,25.20
2019-05-19T16:06:15.942Z,25.30
2019-05-19T16:08:43.929Z,25.30
2019-05-19T16:11:12.281Z,24.70
2019-05-19T16:13:40.233Z,25.00
2019-05-19T16:16:08.181Z,24.80
2019-05-19T16:18:36.227Z,25.00
2019-05-19T16:21:04.381Z,25.10
2019-05-19T16:23:32.324Z,25.20
2019-05-19T16:26:00.573Z,24.80
2019-05-19T16:28:30.747Z,24.70
2019-05-19T16:30:58.512Z,24.80
2019-05-19T16:33:26.956Z,24.60
2019-05-19T16:35:55.655Z,24.40
2019-05-19T16:38:23.976Z,24.50
2019-05-19T16:40:52.237Z,24.80
2019-05-19T16:43:20.558Z,24.90
2019-05-19T16:45:50.421Z,24.70
2019-05-19T16:48:24.727Z,24.80
2019-05-19T16:50:52.750Z,25.00
2019-05-19T16:53:20.612Z,25.20
2019-05-19T16:55:48.772Z,25.00
2019-05-19T16:58:21.211Z,24.60
2019-05-19T17:00:46.899Z,24.20
2019-05-19T17:03:15.051Z,23.90
2019-05-19T17:05:43.337Z,23.90
2019-05-19T17:08:11.717Z,23.90
2019-05-19T17:10:39.806Z,23.60
2019-05-19T17:13:07.865Z,23.50
2019-05-19T17:15:35.955Z,23.70
2019-05-19T17:18:04.275Z,23.80
2019-05-19T17:20:32.541Z,24.00
2019-05-19T17:23:00.632Z,23.80
2019-05-19T17:25:29.702Z,24.00
2019-05-19T17:27:59.687Z,24.10
2019-05-19T17:30:27.823Z,24.40
2019-05-19T17:32:56.281Z,24.80
2019-05-19T17:35:24.368Z,25.00
2019-05-19T17:37:52.518Z,24.80
2019-05-19T17:40:21.109Z,24.50
2019-05-19T17:42:49.216Z,24.10
2019-05-19T17:45:17.269Z,24.10
2019-05-19T17:47:45.246Z,24.00
2019-05-19T17:50:16.902Z,24.10
2019-05-19T17:52:45.007Z,23.90
2019-05-19T17:55:13.045Z,23.60
2019-05-19T17:57:43.028Z,23.50
2019-05-19T18:00:12.518Z,23.50
2019-05-19T18:02:40.519Z,23.50
2019-05-19T18:05:09.007Z,23.30
2019-05-19T18:07:37.326Z,23.20
2019-05-19T18:10:06.272Z,23.00
2019-05-19T18:12:34.649Z,22.90
2019-05-19T18:15:03.492Z,22.90
2019-05-19T18:17:31.563Z,22.90
2019-05-19T18:19:59.655Z,22.90
2019-05-19T18:22:27.718Z,22.80
2019-05-19T18:24:55.691Z,22.80
2019-05-19T18:27:23.798Z,22.60
2019-05-19T18:29:52.558Z,22.60
2019-05-19T18:32:20.542Z,22.60
2019-05-19T18:34:48.585Z,22.50
2019-05-19T18:37:16.646Z,22.40
2019-05-19T18:39:44.960Z,22.30
2019-05-19T18:42:13.032Z,22.20
2019-05-19T18:44:41.003Z,22.00
2019-05-19T18:47:08.949Z,21.90
2019-05-19T18:49:37.027Z,21.70
2019-05-19T18:52:05.083Z,21.50
2019-05-19T18:54:33.150Z,21.50
2019-05-19T18:57:01.222Z,21.50
2019-05-19T18:59:29.193Z,21.50
2019-05-19T19:01:57.534Z,21.40
2019-05-19T19:04:25.522Z,21.30
2019-05-19T19:06:53.597Z,21.20
2019-05-19T19:09:21.798Z,20.80
2019-05-19T19:11:49.859Z,20.50
2019-05-19T19:14:17.846Z,20.40
2019-05-19T19:16:46.623Z,20.20
2019-05-19T19:19:15.416Z,20.10
2019-05-19T19:21:43.385Z,19.80
2019-05-19T19:24:11.350Z,19.80
2019-05-19T19:26:40.036Z,19.70
2019-05-19T19:29:10.943Z,19.40
2019-05-19T19:31:48.179Z,19.30
2019-05-19T19:34:09.706Z,19.10
2019-05-19T19:36:37.805Z,19.00
2019-05-19T19:39:06.251Z,18.50
2019-05-19T19:41:34.611Z,18.00
2019-05-19T19:44:02.649Z,17.60
2019-05-19T19:46:30.613Z,17.60
2019-05-19T19:48:58.593Z,17.40
2019-05-19T19:51:28.330Z,17.50
2019-05-19T19:53:56.645Z,17.40
2019-05-19T19:56:24.695Z,17.20
2019-05-19T19:58:52.967Z,17.20
2019-05-19T20:01:20.901Z,17.10
2019-05-19T20:03:48.897Z,17.10
2019-05-19T20:06:16.876Z,17.20
2019-05-19T20:08:45.090Z,17.20
2019-05-19T20:11:13.083Z,17.00
2019-05-19T20:13:41.612Z,16.80
2019-05-19T20:16:09.649Z,16.70
2019-05-19T20:18:37.774Z,16.50
2019-05-19T20:21:05.859Z,16.40
2019-05-19T20:23:33.926Z,16.40
2019-05-19T20:26:01.986Z,16.40
2019-05-19T20:28:30.579Z,16.40
2019-05-19T20:30:58.576Z,16.30
2019-05-19T20:33:26.555Z,16.30
2019-05-19T20:35:54.532Z,16.20
2019-05-19T20:38:22.653Z,16.10
2019-05-19T20:40:50.918Z,16.10
2019-05-19T20:43:18.935Z,16.00
2019-05-19T20:45:46.882Z,16.00
2019-05-19T20:48:16.888Z,16.10
2019-05-19T20:50:44.948Z,16.00
2019-05-19T20:53:13.374Z,16.00
2019-05-19T20:55:41.427Z,15.90
2019-05-19T20:58:09.479Z,15.90
2019-05-19T21:00:49.485Z,15.80
2019-05-19T21:03:07.958Z,15.80
2019-05-19T21:05:36.246Z,15.80
2019-05-19T21:08:04.295Z,15.90
2019-05-19T21:10:32.218Z,16.10
2019-05-19T21:13:00.501Z,16.30
2019-05-19T21:15:28.467Z,16.20
2019-05-19T21:17:56.805Z,16.20
2019-05-19T21:20:24.795Z,16.20
2019-05-19T21:22:52.864Z,16.20
2019-05-19T21:25:21.337Z,16.20
2019-05-19T21:27:49.448Z,16.30
2019-05-19T21:30:17.768Z,16.20
2019-05-19T21:32:45.645Z,16.10
2019-05-19T21:35:13.625Z,16.10
2019-05-19T21:37:41.620Z,16.20
2019-05-19T21:40:09.647Z,16.20
2019-05-19T21:42:37.922Z,16.10
2019-05-19T21:45:06.333Z,16.10
2019-05-19T21:47:34.288Z,16.20
2019-05-19T21:50:02.567Z,16.10
2019-05-19T21:52:30.753Z,16.20
2019-05-19T21:54:58.837Z,16.30
2019-05-19T21:57:26.923Z,16.30
2019-05-19T21:59:55.071Z,16.50
2019-05-19T22:02:23.616Z,16.60
2019-05-19T22:04:52.073Z,16.50
2019-05-19T22:07:27.389Z,16.50
2019-05-19T22:09:55.415Z,16.50
2019-05-19T22:12:23.773Z,16.40
2019-05-19T22:14:52.185Z,16.40
2019-05-19T22:17:20.119Z,16.40
2019-05-19T22:19:48.095Z,16.30
2019-05-19T22:22:15.986Z,16.40
2019-05-19T22:24:43.916Z,16.40
2019-05-19T22:27:11.861Z,16.30
2019-05-19T22:29:39.781Z,16.40
2019-05-19T22:32:07.634Z,16.20
2019-05-19T22:34:35.706Z,16.30
2019-05-19T22:37:03.654Z,16.30
2019-05-19T22:39:31.669Z,16.40
2019-05-19T22:42:00.314Z,16.40
2019-05-19T22:44:28.570Z,16.30
2019-05-19T22:46:56.714Z,16.20
2019-05-19T22:49:24.616Z,16.20
2019-05-19T22:51:52.619Z,16.10
2019-05-19T22:54:26.618Z,16.00
2019-05-19T22:56:55.235Z,16.10
2019-05-19T22:59:23.235Z,16.00
2019-05-19T23:01:52.182Z,16.10
2019-05-19T23:04:20.490Z,16.20
2019-05-19T23:06:48.503Z,16.50
2019-05-19T23:09:16.567Z,16.70
2019-05-19T23:11:44.532Z,16.80
2019-05-19T23:14:12.387Z,16.90
2019-05-19T23:16:40.343Z,16.70
2019-05-19T23:19:08.422Z,16.70
2019-05-19T23:21:36.624Z,16.70
2019-05-19T23:24:04.644Z,16.80
2019-05-19T23:26:32.749Z,16.80
2019-05-19T23:29:00.660Z,16.60
2019-05-19T23:31:28.622Z,16.40
2019-05-19T23:33:56.884Z,16.30
2019-05-19T23:36:24.894Z,16.10
2019-05-19T23:38:52.775Z,16.00
2019-05-19T23:41:20.812Z,16.10
2019-05-19T23:43:49.434Z,16.00
2019-05-19T23:46:17.431Z,15.80
2019-05-19T23:48:45.529Z,15.60
2019-05-19T23:51:13.586Z,15.60
2019-05-19T23:53:41.535Z,15.70
2019-05-19T23:56:09.505Z,15.60
2019-05-19T23:58:37.673Z,15.60
